createdAt,value
2022-07-29T00:01:45.599Z,10.52
2022-07-29T00:04:15.104Z,7.03
2022-07-29T00:06:44.863Z,5.43
2022-07-29T00:09:14.548Z,6.40
2022-07-29T00:11:43.610Z,5.55
2022-07-29T00:14:13.080Z,5.10
2022-07-29T00:16:44.044Z,7.85
2022-07-29T00:19:13.146Z,5.68
2022-07-29T00:21:42.327Z,6.13
2022-07-29T00:24:11.297Z,7.07
2022-07-29T00:26:40.275Z,4.57
2022-07-29T00:32:00.172Z,4.22
2022-07-29T00:34:47.269Z,5.68
2022-07-29T00:37:16.201Z,6.90
2022-07-29T00:39:45.757Z,7.20
2022-07-29T00:42:14.777Z,5.50
2022-07-29T00:44:44.783Z,6.65
2022-07-29T00:47:15.551Z,5.68
2022-07-29T00:49:44.722Z,4.43
2022-07-29T00:52:17.128Z,7.22
2022-07-29T00:54:46.497Z,4.75
2022-07-29T00:57:15.658Z,6.22
2022-07-29T00:59:44.748Z,9.95
2022-07-29T01:02:15.401Z,6.60
2022-07-29T01:04:44.453Z,5.53
2022-07-29T01:07:13.894Z,5.07
2022-07-29T01:09:46.864Z,6.13
2022-07-29T01:12:21.031Z,7.30
2022-07-29T01:14:51.024Z,6.68
2022-07-29T01:17:28.095Z,6.50
2022-07-29T01:20:03.990Z,6.53
2022-07-29T01:22:48.419Z,6.30
2022-07-29T01:25:42.614Z,7.95
2022-07-29T01:28:45.383Z,6.25
2022-07-29T01:31:24.957Z,5.57
2022-07-29T01:34:05.581Z,5.38
2022-07-29T01:36:39.113Z,5.03
2022-07-29T01:39:12.295Z,5.45
2022-07-29T01:41:50.459Z,6.10
2022-07-29T01:44:24.739Z,4.13
2022-07-29T01:47:00.967Z,7.47
2022-07-29T01:49:33.595Z,7.30
2022-07-29T01:52:05.992Z,9.48
2022-07-29T01:54:40.759Z,5.65
2022-07-29T01:57:11.889Z,7.28
2022-07-29T01:59:42.980Z,7.25
2022-07-29T02:02:16.062Z,7.05
2022-07-29T02:04:50.296Z,5.82
2022-07-29T02:07:22.232Z,5.15
2022-07-29T02:09:52.976Z,9.27
2022-07-29T02:12:22.753Z,10.27
2022-07-29T02:14:54.843Z,5.05
2022-07-29T02:17:29.829Z,7.47
2022-07-29T02:20:02.057Z,9.32
2022-07-29T02:22:33.232Z,6.40
2022-07-29T02:25:03.190Z,5.43
2022-07-29T02:27:35.771Z,5.15
2022-07-29T02:30:06.522Z,5.38
2022-07-29T02:32:39.094Z,6.40
2022-07-29T02:35:11.323Z,7.78
2022-07-29T02:37:41.783Z,6.60
2022-07-29T02:40:13.760Z,6.93
2022-07-29T02:42:46.204Z,6.68
2022-07-29T02:45:15.197Z,5.88
2022-07-29T02:47:50.139Z,5.88
2022-07-29T02:50:23.387Z,7.80
2022-07-29T02:52:59.541Z,7.18
2022-07-29T02:55:32.679Z,5.22
2022-07-29T02:58:05.024Z,5.75
2022-07-29T03:00:38.637Z,4.70
2022-07-29T03:03:14.416Z,7.32
2022-07-29T03:05:43.769Z,7.55
2022-07-29T03:08:14.967Z,5.82
2022-07-29T03:10:47.400Z,9.75
2022-07-29T03:13:17.776Z,8.43
2022-07-29T03:15:47.417Z,6.38
2022-07-29T03:18:18.318Z,6.03
2022-07-29T03:20:47.483Z,6.22
2022-07-29T03:23:21.878Z,5.97
2022-07-29T03:25:53.459Z,6.13
2022-07-29T03:28:24.452Z,3.70
2022-07-29T03:30:56.235Z,6.03
2022-07-29T03:33:28.112Z,8.38
2022-07-29T03:36:00.180Z,5.50
2022-07-29T03:38:33.048Z,11.98
2022-07-29T03:41:07.815Z,6.30
2022-07-29T03:43:49.294Z,5.60
2022-07-29T03:46:20.208Z,5.68
2022-07-29T03:48:55.063Z,6.10
2022-07-29T03:51:33.932Z,8.00
2022-07-29T03:54:09.696Z,7.63
2022-07-29T03:56:42.767Z,5.25
2022-07-29T03:59:13.617Z,5.50
2022-07-29T04:01:43.797Z,8.18
2022-07-29T04:04:14.882Z,8.00
2022-07-29T04:06:45.763Z,5.07
2022-07-29T04:09:17.564Z,9.15
2022-07-29T04:12:03.798Z,6.68
2022-07-29T04:14:34.518Z,5.30
2022-07-29T04:17:04.505Z,5.93
2022-07-29T04:19:35.168Z,5.15
2022-07-29T04:22:04.310Z,6.47
2022-07-29T04:24:33.394Z,5.75
2022-07-29T04:27:02.723Z,6.43
2022-07-29T04:29:31.664Z,6.22
2022-07-29T04:32:00.645Z,8.30
2022-07-29T04:34:30.381Z,6.60
2022-07-29T04:37:00.965Z,6.78
2022-07-29T04:39:30.548Z,7.28
2022-07-29T04:41:59.590Z,7.88
2022-07-29T04:44:29.181Z,11.60
2022-07-29T04:46:59.454Z,6.75
2022-07-29T04:49:28.575Z,5.88
2022-07-29T04:51:57.544Z,7.03
2022-07-29T04:54:28.392Z,6.97
2022-07-29T04:56:57.527Z,7.57
2022-07-29T04:59:28.462Z,5.28
2022-07-29T05:01:57.438Z,7.50
2022-07-29T05:04:26.577Z,5.30
2022-07-29T05:06:55.568Z,10.93
2022-07-29T05:09:24.645Z,5.68
2022-07-29T05:11:55.281Z,7.28
2022-07-29T05:14:24.236Z,7.30
2022-07-29T05:16:53.290Z,7.03
2022-07-29T05:19:22.267Z,7.95
2022-07-29T05:21:51.713Z,7.15
2022-07-29T05:24:20.729Z,7.00
2022-07-29T05:26:49.690Z,7.68
2022-07-29T05:29:44.614Z,6.32
2022-07-29T05:32:10.443Z,9.73
2022-07-29T05:34:50.782Z,7.53
2022-07-29T05:37:21.472Z,7.50
2022-07-29T05:39:56.504Z,6.28
2022-07-29T05:44:56.837Z,9.50
2022-07-29T05:47:26.341Z,7.25
2022-07-29T05:49:55.792Z,6.50
2022-07-29T05:52:24.807Z,6.97
2022-07-29T05:54:53.917Z,6.75
2022-07-29T05:57:24.818Z,6.70
2022-07-29T05:59:55.939Z,6.90
2022-07-29T06:02:24.943Z,8.25
2022-07-29T06:04:54.266Z,7.07
2022-07-29T06:07:23.409Z,8.48
2022-07-29T06:09:52.412Z,8.63
2022-07-29T06:12:21.637Z,8.02
2022-07-29T06:14:54.037Z,8.30
2022-07-29T06:17:24.889Z,8.10
2022-07-29T06:19:53.960Z,10.18
2022-07-29T06:22:22.985Z,7.78
2022-07-29T06:24:52.045Z,8.98
2022-07-29T06:27:21.037Z,11.38
2022-07-29T06:29:52.830Z,8.10
2022-07-29T06:32:23.641Z,9.38
2022-07-29T06:35:11.883Z,9.93
2022-07-29T06:37:45.552Z,7.18
2022-07-29T06:40:36.250Z,7.57
2022-07-29T06:43:05.447Z,9.27
2022-07-29T06:45:37.181Z,11.80
2022-07-29T06:48:08.454Z,7.47
2022-07-29T06:50:37.544Z,8.70
2022-07-29T06:53:06.524Z,8.35
2022-07-29T06:55:35.567Z,7.10
2022-07-29T06:58:04.549Z,7.65
2022-07-29T07:00:33.493Z,10.00
2022-07-29T07:03:02.844Z,7.90
2022-07-29T07:05:33.466Z,8.15
2022-07-29T07:08:02.410Z,9.15
2022-07-29T07:10:31.394Z,8.30
2022-07-29T07:13:00.325Z,11.68
2022-07-29T07:15:39.575Z,8.50
2022-07-29T07:18:09.341Z,9.75
2022-07-29T07:20:40.187Z,8.68
2022-07-29T07:23:09.250Z,8.38
2022-07-29T07:25:38.548Z,8.10
2022-07-29T07:28:07.829Z,9.38
2022-07-29T07:30:36.903Z,9.43
2022-07-29T07:33:06.419Z,9.10
2022-07-29T07:35:35.703Z,8.38
2022-07-29T07:38:07.931Z,8.70
2022-07-29T07:40:37.409Z,7.90
2022-07-29T07:43:06.389Z,8.45
2022-07-29T07:45:35.589Z,10.57
2022-07-29T07:48:04.641Z,10.70
2022-07-29T07:50:33.862Z,8.15
2022-07-29T07:53:03.900Z,9.68
2022-07-29T07:55:53.534Z,8.15
2022-07-29T07:58:23.855Z,8.63
2022-07-29T08:00:53.082Z,6.75
2022-07-29T08:03:22.206Z,7.65
2022-07-29T08:05:53.489Z,8.60
2022-07-29T08:08:22.726Z,10.52
2022-07-29T08:10:59.180Z,10.10
2022-07-29T08:13:32.112Z,8.45
2022-07-29T08:16:13.563Z,8.50
2022-07-29T08:18:46.072Z,6.85
2022-07-29T08:21:15.609Z,9.65
2022-07-29T08:23:58.462Z,8.63
2022-07-29T08:26:31.488Z,9.88
2022-07-29T08:29:00.403Z,6.57
2022-07-29T08:31:29.442Z,7.53
2022-07-29T08:34:01.529Z,8.52
2022-07-29T08:36:30.476Z,6.40
2022-07-29T08:38:59.758Z,8.10
2022-07-29T08:41:29.173Z,7.53
2022-07-29T08:43:59.918Z,6.38
2022-07-29T08:46:29.118Z,9.15
2022-07-29T08:48:58.282Z,7.60
2022-07-29T08:51:29.609Z,10.95
2022-07-29T08:53:59.288Z,7.32
2022-07-29T08:56:29.247Z,6.55
2022-07-29T08:59:01.066Z,7.47
2022-07-29T09:01:42.325Z,7.68
2022-07-29T09:04:14.350Z,6.70
2022-07-29T09:06:48.434Z,5.57
2022-07-29T09:09:17.496Z,6.00
2022-07-29T09:11:47.091Z,8.60
2022-07-29T09:14:17.738Z,8.48
2022-07-29T09:17:00.902Z,5.55
2022-07-29T09:19:31.838Z,7.72
2022-07-29T09:22:03.472Z,5.40
2022-07-29T09:24:44.047Z,5.93
2022-07-29T09:27:24.304Z,5.43
2022-07-29T09:30:05.962Z,5.60
2022-07-29T09:32:35.713Z,6.80
2022-07-29T09:35:21.029Z,7.32
2022-07-29T09:37:50.570Z,4.40
2022-07-29T09:40:21.512Z,6.93
2022-07-29T09:42:50.731Z,5.88
2022-07-29T09:45:31.901Z,8.38
2022-07-29T09:48:04.746Z,6.20
2022-07-29T09:50:41.738Z,6.40
2022-07-29T09:53:11.885Z,6.15
2022-07-29T09:55:51.944Z,7.28
2022-07-29T09:58:21.860Z,8.40
2022-07-29T10:00:54.345Z,8.10
2022-07-29T10:03:23.643Z,6.43
2022-07-29T10:06:08.072Z,5.45
2022-07-29T10:08:37.428Z,6.32
2022-07-29T10:11:14.364Z,5.32
2022-07-29T10:13:44.059Z,5.32
2022-07-29T10:16:15.774Z,6.22
2022-07-29T10:18:45.574Z,6.05
2022-07-29T10:21:22.554Z,5.63
2022-07-29T10:24:04.593Z,5.22
2022-07-29T10:26:33.951Z,6.68
2022-07-29T10:29:04.332Z,7.85
2022-07-29T10:31:46.205Z,8.35
2022-07-29T10:34:25.451Z,7.13
2022-07-29T10:37:03.396Z,8.93
2022-07-29T10:39:49.680Z,6.78
2022-07-29T10:42:33.518Z,5.55
2022-07-29T10:45:05.842Z,6.47
2022-07-29T10:47:36.807Z,5.43
2022-07-29T10:50:12.804Z,7.50
2022-07-29T10:52:58.440Z,5.88
2022-07-29T10:55:36.345Z,6.00
2022-07-29T10:58:15.893Z,8.05
2022-07-29T11:00:49.543Z,6.22
2022-07-29T11:03:52.188Z,5.85
2022-07-29T11:06:27.010Z,6.30
2022-07-29T11:09:25.895Z,5.97
2022-07-29T11:12:27.172Z,8.32
2022-07-29T11:15:02.104Z,8.18
2022-07-29T11:17:47.137Z,7.72
2022-07-29T11:20:46.436Z,7.53
2022-07-29T11:23:26.165Z,6.30
2022-07-29T11:26:18.970Z,8.82
2022-07-29T11:28:59.704Z,8.45
2022-07-29T11:31:41.180Z,10.07
2022-07-29T11:34:28.028Z,8.57
2022-07-29T11:37:27.764Z,9.77
2022-07-29T11:40:18.745Z,7.65
2022-07-29T11:42:50.236Z,7.60
2022-07-29T11:45:42.535Z,7.80
2022-07-29T11:48:29.444Z,10.95
2022-07-29T11:51:00.330Z,7.75
2022-07-29T11:53:32.517Z,8.00
2022-07-29T11:56:03.336Z,7.75
2022-07-29T11:58:33.439Z,6.53
2022-07-29T12:01:04.831Z,5.72
2022-07-29T12:03:36.638Z,8.68
2022-07-29T12:06:15.435Z,7.47
2022-07-29T12:08:48.199Z,11.00
2022-07-29T12:11:23.379Z,8.15
2022-07-29T12:13:53.608Z,8.90
2022-07-29T12:16:26.020Z,8.95
2022-07-29T12:19:00.175Z,9.80
2022-07-29T12:21:29.568Z,6.32
2022-07-29T12:24:05.792Z,7.28
2022-07-29T12:26:40.524Z,7.43
2022-07-29T12:29:20.428Z,8.32
2022-07-29T12:32:06.173Z,7.68
2022-07-29T12:34:44.022Z,7.38
2022-07-29T12:37:14.232Z,7.95
2022-07-29T12:39:45.177Z,9.77
2022-07-29T12:42:18.540Z,8.60
2022-07-29T12:44:49.281Z,6.97
2022-07-29T12:47:19.893Z,7.82
2022-07-29T12:49:49.026Z,8.30
2022-07-29T12:52:28.373Z,9.50
2022-07-29T12:54:59.297Z,8.90
2022-07-29T12:57:28.928Z,8.95
2022-07-29T13:00:12.757Z,6.43
2022-07-29T13:02:43.374Z,8.70
2022-07-29T13:05:14.482Z,10.82
2022-07-29T13:07:55.778Z,7.68
2022-07-29T13:10:28.179Z,8.07
2022-07-29T13:13:12.035Z,7.70
2022-07-29T13:15:42.775Z,10.63
2022-07-29T13:18:29.459Z,7.97
2022-07-29T13:20:58.835Z,8.70
2022-07-29T13:23:27.847Z,6.60
2022-07-29T13:26:09.149Z,9.90
2022-07-29T13:28:38.276Z,6.93
2022-07-29T13:31:07.739Z,8.90
2022-07-29T13:33:36.739Z,11.75
2022-07-29T13:36:05.946Z,12.50
2022-07-29T13:38:35.786Z,12.40
2022-07-29T13:41:06.494Z,10.18
2022-07-29T13:43:35.533Z,8.20
2022-07-29T13:46:04.592Z,11.18
2022-07-29T13:48:33.814Z,9.60
2022-07-29T13:51:02.950Z,10.23
2022-07-29T13:53:31.942Z,10.15
2022-07-29T13:56:01.010Z,16.13
2022-07-29T13:58:31.602Z,10.75
2022-07-29T14:01:00.683Z,12.60
2022-07-29T14:03:29.819Z,9.52
2022-07-29T14:05:59.078Z,10.27
2022-07-29T14:08:30.361Z,13.27
2022-07-29T14:10:59.310Z,11.70
2022-07-29T14:13:28.268Z,12.20
2022-07-29T14:15:59.676Z,12.27
2022-07-29T14:18:28.667Z,11.75
2022-07-29T14:20:57.596Z,14.32
2022-07-29T14:23:26.522Z,12.95
2022-07-29T14:25:55.526Z,14.70
2022-07-29T14:28:25.004Z,10.65
2022-07-29T14:30:54.008Z,11.43
2022-07-29T14:33:24.571Z,10.15
2022-07-29T14:35:53.504Z,11.35
2022-07-29T14:38:22.462Z,13.95
2022-07-29T14:40:55.908Z,13.85
2022-07-29T14:43:24.917Z,12.23
2022-07-29T14:45:57.547Z,13.48
2022-07-29T14:48:31.860Z,9.73
2022-07-29T14:51:04.537Z,10.45
2022-07-29T14:53:34.817Z,14.70
2022-07-29T14:56:21.131Z,12.63
2022-07-29T14:58:52.773Z,17.30
2022-07-29T15:01:22.392Z,9.95
2022-07-29T15:03:55.765Z,14.68
2022-07-29T15:06:28.614Z,15.82
2022-07-29T15:08:57.702Z,12.50
2022-07-29T15:11:27.265Z,13.95
2022-07-29T15:13:56.188Z,10.50
2022-07-29T15:16:26.061Z,11.85
2022-07-29T15:19:01.180Z,11.93
2022-07-29T15:21:30.462Z,8.98
2022-07-29T15:23:59.526Z,11.27
2022-07-29T15:26:28.873Z,12.82
2022-07-29T15:28:57.897Z,9.43
2022-07-29T15:31:26.886Z,10.50
2022-07-29T15:34:00.269Z,10.90
2022-07-29T15:39:20.524Z,9.20
2022-07-29T15:41:49.928Z,11.38
2022-07-29T15:44:18.943Z,9.45
2022-07-29T15:47:06.514Z,12.48
2022-07-29T15:49:47.214Z,8.73
2022-07-29T15:52:26.243Z,11.88
2022-07-29T15:54:56.400Z,11.15
2022-07-29T15:57:25.863Z,10.82
2022-07-29T15:59:55.094Z,13.80
2022-07-29T16:02:24.087Z,10.77
2022-07-29T16:04:55.141Z,11.05
2022-07-29T16:07:24.115Z,12.85
2022-07-29T16:10:00.497Z,12.63
2022-07-29T16:12:29.494Z,11.23
2022-07-29T16:14:58.545Z,12.45
2022-07-29T16:17:28.616Z,12.35
2022-07-29T16:19:59.253Z,9.70
2022-07-29T16:22:28.157Z,10.60
2022-07-29T16:24:57.132Z,11.35
2022-07-29T16:27:33.194Z,11.18
2022-07-29T16:30:10.414Z,9.50
2022-07-29T16:32:40.549Z,11.85
2022-07-29T16:35:11.975Z,11.38
2022-07-29T16:37:40.947Z,11.82
2022-07-29T16:40:11.778Z,10.55
2022-07-29T16:42:47.070Z,10.07
2022-07-29T16:45:18.034Z,11.25
2022-07-29T16:47:50.310Z,10.18
2022-07-29T16:50:21.091Z,10.98
2022-07-29T16:52:50.032Z,7.72
2022-07-29T16:55:18.995Z,10.77
2022-07-29T16:57:48.018Z,6.32
2022-07-29T17:00:18.778Z,10.23
2022-07-29T17:02:47.779Z,9.82
2022-07-29T17:05:17.213Z,9.48
2022-07-29T17:07:48.401Z,6.97
2022-07-29T17:10:17.345Z,6.63
2022-07-29T17:12:46.640Z,11.27
2022-07-29T17:15:19.245Z,9.15
2022-07-29T17:17:54.819Z,6.53
2022-07-29T17:20:24.901Z,9.00
2022-07-29T17:22:55.641Z,6.13
2022-07-29T17:25:25.561Z,6.93
2022-07-29T17:28:00.608Z,8.32
2022-07-29T17:30:30.104Z,12.75
2022-07-29T17:32:59.099Z,6.78
2022-07-29T17:35:45.983Z,8.85
2022-07-29T17:38:16.547Z,6.30
2022-07-29T17:40:45.564Z,5.50
2022-07-29T17:43:16.874Z,3.70
2022-07-29T17:45:49.705Z,5.35
2022-07-29T17:48:20.138Z,7.68
2022-07-29T17:50:49.828Z,7.18
2022-07-29T17:53:20.501Z,7.18
2022-07-29T17:55:50.438Z,7.07
2022-07-29T17:58:19.414Z,6.50
2022-07-29T18:00:48.638Z,5.75
2022-07-29T18:03:17.929Z,6.05
2022-07-29T18:05:46.937Z,5.75
2022-07-29T18:08:15.889Z,4.47
2022-07-29T18:10:46.892Z,7.07
2022-07-29T18:13:17.321Z,6.85
2022-07-29T18:15:46.764Z,6.47
2022-07-29T18:18:16.579Z,5.03
2022-07-29T18:20:45.938Z,5.80
2022-07-29T18:23:14.961Z,10.02
2022-07-29T18:25:46.057Z,5.45
2022-07-29T18:28:14.995Z,7.35
2022-07-29T18:30:44.027Z,4.20
2022-07-29T18:33:21.385Z,5.97
2022-07-29T18:35:52.404Z,6.10
2022-07-29T18:38:40.147Z,5.97
2022-07-29T18:41:11.074Z,6.90
2022-07-29T18:43:40.086Z,5.72
2022-07-29T18:46:09.085Z,4.38
2022-07-29T18:48:38.199Z,5.28
2022-07-29T18:51:09.434Z,6.47
2022-07-29T18:53:38.817Z,5.80
2022-07-29T18:56:07.763Z,6.65
2022-07-29T18:58:40.128Z,5.53
2022-07-29T19:01:09.917Z,5.75
2022-07-29T19:03:41.431Z,4.70
2022-07-29T19:06:10.643Z,6.20
2022-07-29T19:08:39.577Z,7.55
2022-07-29T19:11:08.582Z,6.25
2022-07-29T19:13:39.381Z,6.65
2022-07-29T19:16:12.419Z,6.57
2022-07-29T19:18:41.518Z,4.15
2022-07-29T19:21:10.708Z,4.18
2022-07-29T19:24:07.483Z,6.00
2022-07-29T19:26:29.083Z,4.85
2022-07-29T19:28:59.661Z,6.63
2022-07-29T19:31:28.948Z,4.65
2022-07-29T19:33:57.995Z,6.38
2022-07-29T19:36:28.096Z,6.30
2022-07-29T19:38:57.017Z,5.88
2022-07-29T19:41:25.998Z,6.55
2022-07-29T19:43:55.032Z,5.28
2022-07-29T19:46:26.054Z,5.97
2022-07-29T19:48:55.269Z,9.88
2022-07-29T19:51:24.820Z,6.43
2022-07-29T19:53:54.553Z,5.00
2022-07-29T19:56:26.088Z,6.65
2022-07-29T19:58:55.271Z,5.85
2022-07-29T20:01:25.908Z,7.85
2022-07-29T20:03:54.913Z,7.15
2022-07-29T20:06:24.012Z,6.60
2022-07-29T20:08:58.235Z,7.53
2022-07-29T20:11:28.240Z,6.50
2022-07-29T20:13:57.197Z,6.88
2022-07-29T20:16:27.852Z,6.47
2022-07-29T20:18:56.917Z,7.63
2022-07-29T20:21:27.604Z,8.35
2022-07-29T20:24:01.956Z,7.63
2022-07-29T20:26:30.937Z,5.22
2022-07-29T20:29:00.099Z,6.75
2022-07-29T20:31:31.606Z,6.57
2022-07-29T20:34:01.348Z,7.72
2022-07-29T20:36:30.389Z,5.70
2022-07-29T20:39:00.839Z,6.35
2022-07-29T20:41:29.944Z,6.50
2022-07-29T20:43:58.880Z,7.53
2022-07-29T20:46:29.701Z,5.53
2022-07-29T20:48:58.781Z,5.13
2022-07-29T20:51:27.868Z,8.68
2022-07-29T20:53:56.822Z,7.55
2022-07-29T20:56:25.989Z,5.18
2022-07-29T20:58:54.902Z,5.60
2022-07-29T21:01:24.095Z,9.25
2022-07-29T21:03:54.664Z,5.70
2022-07-29T21:06:23.655Z,5.97
2022-07-29T21:08:52.644Z,8.68
2022-07-29T21:11:43.722Z,5.95
2022-07-29T21:14:10.524Z,7.20
2022-07-29T21:16:39.462Z,6.60
2022-07-29T21:19:10.091Z,7.45
2022-07-29T21:21:39.043Z,7.25
2022-07-29T21:24:12.213Z,6.47
2022-07-29T21:26:41.425Z,6.45
2022-07-29T21:29:10.424Z,7.43
2022-07-29T21:31:41.932Z,5.22
2022-07-29T21:34:12.672Z,7.07
2022-07-29T21:36:48.244Z,5.28
2022-07-29T21:39:17.975Z,4.70
2022-07-29T21:41:46.899Z,5.50
2022-07-29T21:44:15.825Z,6.47
2022-07-29T21:46:44.827Z,5.95
2022-07-29T21:49:15.520Z,6.97
2022-07-29T21:51:44.515Z,8.20
2022-07-29T21:54:13.581Z,7.28
2022-07-29T21:56:43.022Z,5.50
2022-07-29T21:59:19.994Z,7.72
2022-07-29T22:01:49.225Z,6.25
2022-07-29T22:04:19.924Z,8.35
2022-07-29T22:06:49.035Z,9.35
2022-07-29T22:09:17.976Z,6.78
2022-07-29T22:11:48.643Z,8.68
2022-07-29T22:14:19.404Z,6.68
2022-07-29T22:16:49.156Z,6.25
2022-07-29T22:19:20.043Z,10.25
2022-07-29T22:21:48.986Z,6.00
2022-07-29T22:24:19.742Z,5.05
2022-07-29T22:26:48.663Z,7.90
2022-07-29T22:29:18.604Z,9.50
2022-07-29T22:31:47.624Z,7.20
2022-07-29T22:34:18.768Z,7.93
2022-07-29T22:36:47.837Z,6.28
2022-07-29T22:39:16.901Z,5.70
2022-07-29T22:41:45.922Z,5.65
2022-07-29T22:44:14.848Z,6.82
2022-07-29T22:46:43.861Z,10.02
2022-07-29T22:49:12.949Z,5.72
2022-07-29T22:51:43.603Z,8.35
2022-07-29T22:54:12.515Z,12.80
2022-07-29T22:56:41.667Z,8.52
2022-07-29T22:59:10.680Z,6.40
2022-07-29T23:01:39.769Z,5.63
2022-07-29T23:04:09.114Z,7.78
2022-07-29T23:06:38.141Z,6.45
2022-07-29T23:09:08.767Z,6.50
2022-07-29T23:11:37.788Z,8.55
2022-07-29T23:14:06.732Z,8.27
2022-07-29T23:16:38.842Z,6.68
2022-07-29T23:19:07.859Z,7.60
2022-07-29T23:21:36.812Z,8.10
2022-07-29T23:24:07.767Z,8.48
2022-07-29T23:26:37.700Z,8.38
2022-07-29T23:29:06.659Z,9.93
2022-07-29T23:31:36.778Z,8.70
2022-07-29T23:34:11.636Z,7.13
2022-07-29T23:36:40.683Z,6.82
2022-07-29T23:39:14.394Z,7.95
2022-07-29T23:41:43.674Z,9.10
2022-07-29T23:44:12.593Z,7.32
2022-07-29T23:46:41.615Z,8.90
2022-07-29T23:49:10.634Z,7.18
2022-07-29T23:51:39.664Z,6.53
2022-07-29T23:54:08.606Z,13.73
2022-07-29T23:56:39.411Z,8.38
2022-07-29T23:59:08.336Z,7.68
